createdAt,value
2023-03-29T00:00:26.529Z,92.93
2023-03-29T00:01:35.302Z,92.93
2023-03-29T00:02:26.635Z,93.14
2023-03-29T00:03:26.570Z,93.45
2023-03-29T00:04:26.477Z,93.45
2023-03-29T00:05:26.452Z,93.66
2023-03-29T00:06:26.435Z,93.66
2023-03-29T00:07:26.445Z,93.76
2023-03-29T00:08:26.438Z,93.55
2023-03-29T00:09:26.405Z,93.24
2023-03-29T00:10:26.398Z,93.24
2023-03-29T00:11:26.380Z,93.35
2023-03-29T00:12:26.390Z,93.45
2023-03-29T00:13:26.385Z,93.45
2023-03-29T00:14:26.349Z,93.55
2023-03-29T00:15:26.334Z,93.55
2023-03-29T00:16:26.451Z,93.66
2023-03-29T00:17:26.358Z,93.76
2023-03-29T00:18:26.297Z,93.76
2023-03-29T00:19:26.325Z,93.76
2023-03-29T00:20:26.283Z,93.87
2023-03-29T00:21:26.270Z,93.97
2023-03-29T00:22:26.292Z,94.07
2023-03-29T00:23:26.259Z,94.18
2023-03-29T00:24:26.233Z,94.28
2023-03-29T00:25:26.238Z,94.28
2023-03-29T00:26:26.217Z,94.38
2023-03-29T00:27:26.221Z,94.38
2023-03-29T00:28:26.212Z,94.48
2023-03-29T00:29:26.195Z,94.48
2023-03-29T00:30:26.200Z,94.59
2023-03-29T00:31:26.263Z,94.63
2023-03-29T00:32:26.277Z,94.69
2023-03-29T00:33:26.152Z,94.73
2023-03-29T00:34:26.117Z,94.73
2023-03-29T00:35:26.153Z,94.73
2023-03-29T00:36:26.122Z,94.73
2023-03-29T00:37:26.111Z,94.73
2023-03-29T00:38:26.100Z,94.73
2023-03-29T00:39:26.069Z,94.73
2023-03-29T00:40:26.056Z,94.73
2023-03-29T00:41:26.067Z,94.73
2023-03-29T00:42:26.056Z,94.73
2023-03-29T00:43:26.051Z,94.84
2023-03-29T00:44:26.010Z,94.84
2023-03-29T00:45:26.019Z,94.84
2023-03-29T00:46:26.078Z,94.84
2023-03-29T00:47:26.029Z,94.94
2023-03-29T00:48:25.991Z,94.94
2023-03-29T00:49:26.008Z,94.94
2023-03-29T00:50:26.133Z,94.94
2023-03-29T00:51:25.948Z,94.94
2023-03-29T00:52:25.926Z,95.04
2023-03-29T00:53:25.939Z,95.04
2023-03-29T00:54:25.901Z,95.04
2023-03-29T00:55:25.881Z,95.09
2023-03-29T00:56:25.879Z,95.09
2023-03-29T00:57:27.726Z,95.09
2023-03-29T00:58:25.883Z,95.09
2023-03-29T00:59:25.855Z,95.19
2023-03-29T01:00:25.834Z,95.19
2023-03-29T01:01:25.966Z,95.19
2023-03-29T01:02:25.856Z,95.19
2023-03-29T01:03:25.944Z,95.19
2023-03-29T01:04:25.794Z,95.29
2023-03-29T01:05:25.796Z,95.29
2023-03-29T01:06:25.822Z,95.29
2023-03-29T01:07:25.782Z,95.29
2023-03-29T01:08:25.785Z,95.40
2023-03-29T01:09:25.780Z,95.40
2023-03-29T01:10:25.739Z,95.40
2023-03-29T01:11:25.712Z,95.40
2023-03-29T01:12:25.711Z,95.50
2023-03-29T01:13:25.718Z,95.50
2023-03-29T01:14:25.713Z,95.50
2023-03-29T01:15:25.699Z,95.50
2023-03-29T01:16:25.729Z,95.50
2023-03-29T01:17:25.726Z,95.50
2023-03-29T01:18:25.690Z,95.50
2023-03-29T01:19:25.648Z,95.50
2023-03-29T01:20:25.619Z,95.54
2023-03-29T01:21:25.613Z,95.54
2023-03-29T01:22:26.914Z,95.65
2023-03-29T01:23:25.610Z,95.65
2023-03-29T01:24:25.578Z,95.65
2023-03-29T01:25:25.576Z,95.65
2023-03-29T01:26:25.550Z,95.65
2023-03-29T01:27:25.550Z,95.75
2023-03-29T01:28:25.548Z,95.75
2023-03-29T01:29:25.568Z,95.75
2023-03-29T01:30:25.542Z,95.75
2023-03-29T01:31:25.557Z,95.75
2023-03-29T01:32:25.488Z,95.75
2023-03-29T01:33:25.497Z,95.86
2023-03-29T01:34:25.474Z,95.86
2023-03-29T01:35:25.460Z,95.75
2023-03-29T01:36:25.440Z,95.80
2023-03-29T01:37:25.434Z,95.80
2023-03-29T01:38:25.433Z,95.90
2023-03-29T01:39:25.402Z,95.80
2023-03-29T01:40:25.492Z,95.80
2023-03-29T01:41:25.389Z,95.80
2023-03-29T01:42:25.376Z,95.80
2023-03-29T01:43:25.397Z,95.80
2023-03-29T01:44:25.348Z,95.90
2023-03-29T01:45:25.343Z,95.90
2023-03-29T01:46:25.368Z,95.90
2023-03-29T01:47:25.350Z,95.90
2023-03-29T01:48:25.336Z,95.95
2023-03-29T01:49:25.315Z,95.95
2023-03-29T01:50:25.288Z,96.05
2023-03-29T01:51:25.278Z,96.05
2023-03-29T01:52:25.260Z,96.05
2023-03-29T01:53:25.274Z,96.05
2023-03-29T01:54:25.257Z,95.95
2023-03-29T01:55:25.238Z,95.95
2023-03-29T01:56:25.227Z,95.84
2023-03-29T01:57:25.365Z,95.84
2023-03-29T01:58:25.219Z,95.84
2023-03-29T01:59:25.188Z,95.84
2023-03-29T02:00:25.173Z,95.84
2023-03-29T02:01:25.204Z,95.95
2023-03-29T02:02:25.261Z,95.84
2023-03-29T02:03:25.340Z,95.84
2023-03-29T02:04:25.129Z,95.84
2023-03-29T02:05:25.113Z,95.95
2023-03-29T02:06:25.121Z,95.95
2023-03-29T02:07:25.125Z,95.95
2023-03-29T02:08:25.111Z,95.95
2023-03-29T02:09:25.078Z,95.89
2023-03-29T02:10:25.058Z,95.99
2023-03-29T02:11:25.045Z,95.68
2023-03-29T02:12:25.096Z,95.78
2023-03-29T02:13:25.069Z,95.78
2023-03-29T02:14:25.013Z,95.78
2023-03-29T02:15:25.103Z,95.78
2023-03-29T02:16:25.029Z,95.93
2023-03-29T02:17:25.056Z,95.93
2023-03-29T02:18:24.993Z,95.93
2023-03-29T02:19:24.967Z,95.83
2023-03-29T02:20:24.973Z,95.83
2023-03-29T02:21:24.935Z,95.83
2023-03-29T02:22:24.928Z,95.83
2023-03-29T02:23:24.954Z,95.83
2023-03-29T02:24:24.903Z,95.83
2023-03-29T02:25:24.896Z,95.83
2023-03-29T02:26:24.894Z,95.83
2023-03-29T02:27:24.868Z,95.83
2023-03-29T02:28:24.883Z,95.83
2023-03-29T02:29:24.889Z,95.72
2023-03-29T02:30:24.883Z,95.72
2023-03-29T02:31:24.939Z,95.77
2023-03-29T02:32:24.862Z,95.87
2023-03-29T02:33:24.828Z,95.87
2023-03-29T02:34:24.790Z,95.87
2023-03-29T02:35:24.803Z,95.87
2023-03-29T02:36:24.789Z,95.98
2023-03-29T02:37:24.769Z,95.98
2023-03-29T02:38:24.763Z,95.98
2023-03-29T02:39:24.760Z,95.87
2023-03-29T02:40:24.732Z,95.87
2023-03-29T02:41:24.739Z,95.92
2023-03-29T02:42:24.716Z,95.92
2023-03-29T02:43:26.016Z,95.92
2023-03-29T02:44:24.681Z,96.02
2023-03-29T02:45:24.673Z,95.92
2023-03-29T02:46:24.743Z,95.92
2023-03-29T02:47:24.663Z,96.02
2023-03-29T02:48:24.661Z,96.02
2023-03-29T02:49:24.669Z,96.02
2023-03-29T02:50:24.646Z,96.02
2023-03-29T02:51:24.611Z,96.02
2023-03-29T02:52:24.640Z,96.02
2023-03-29T02:53:24.634Z,96.02
2023-03-29T02:54:24.586Z,96.02
2023-03-29T02:55:24.572Z,96.12
2023-03-29T02:56:24.562Z,96.02
2023-03-29T02:57:24.581Z,96.02
2023-03-29T02:58:24.551Z,96.02
2023-03-29T02:59:24.543Z,96.02
2023-03-29T03:00:24.512Z,96.02
2023-03-29T03:01:24.635Z,96.02
2023-03-29T03:02:24.514Z,96.02
2023-03-29T03:03:24.581Z,96.02
2023-03-29T03:04:24.502Z,95.92
2023-03-29T03:05:24.468Z,95.92
2023-03-29T03:06:24.446Z,95.96
2023-03-29T03:07:24.464Z,95.86
2023-03-29T03:08:24.522Z,95.86
2023-03-29T03:09:24.450Z,95.86
2023-03-29T03:10:24.399Z,95.75
2023-03-29T03:11:24.389Z,95.75
2023-03-29T03:12:24.376Z,95.65
2023-03-29T03:13:24.372Z,95.65
2023-03-29T03:14:24.391Z,95.75
2023-03-29T03:15:24.343Z,95.75
2023-03-29T03:16:24.375Z,95.75
2023-03-29T03:17:24.361Z,95.75
2023-03-29T03:18:24.325Z,95.86
2023-03-29T03:19:24.320Z,95.86
2023-03-29T03:20:24.317Z,95.86
2023-03-29T03:21:24.281Z,95.86
2023-03-29T03:22:24.301Z,95.86
2023-03-29T03:23:24.255Z,95.86
2023-03-29T03:24:24.281Z,95.86
2023-03-29T03:25:24.234Z,95.86
2023-03-29T03:26:24.253Z,95.96
2023-03-29T03:27:24.203Z,95.96
2023-03-29T03:28:24.245Z,95.96
2023-03-29T03:29:24.204Z,95.96
2023-03-29T03:30:24.210Z,96.06
2023-03-29T03:31:24.200Z,95.96
2023-03-29T03:32:24.178Z,96.06
2023-03-29T03:33:24.166Z,95.96
2023-03-29T03:34:24.145Z,95.96
2023-03-29T03:35:24.131Z,96.06
2023-03-29T03:36:24.109Z,96.06
2023-03-29T03:37:24.093Z,96.06
2023-03-29T03:38:24.128Z,96.06
2023-03-29T03:39:24.098Z,96.06
2023-03-29T03:40:25.529Z,96.06
2023-03-29T03:41:24.062Z,96.17
2023-03-29T03:42:24.067Z,96.06
2023-03-29T03:43:24.037Z,96.17
2023-03-29T03:44:24.047Z,96.17
2023-03-29T03:45:24.017Z,96.12
2023-03-29T03:46:24.086Z,96.12
2023-03-29T03:47:24.001Z,96.12
2023-03-29T03:48:23.962Z,96.12
2023-03-29T03:49:23.980Z,96.12
2023-03-29T03:50:23.983Z,96.12
2023-03-29T03:51:23.941Z,96.12
2023-03-29T03:52:23.930Z,96.12
2023-03-29T03:53:23.920Z,96.12
2023-03-29T03:54:23.916Z,96.12
2023-03-29T03:55:23.903Z,96.12
2023-03-29T03:56:23.885Z,96.12
2023-03-29T03:57:24.001Z,96.12
2023-03-29T03:58:23.883Z,96.12
2023-03-29T03:59:23.886Z,96.12
2023-03-29T04:00:23.840Z,96.12
2023-03-29T04:01:23.824Z,96.12
2023-03-29T04:02:23.845Z,96.12
2023-03-29T04:03:23.842Z,96.12
2023-03-29T04:04:23.856Z,96.12
2023-03-29T04:05:23.908Z,96.12
2023-03-29T04:06:23.778Z,96.12
2023-03-29T04:07:23.772Z,96.12
2023-03-29T04:08:23.760Z,96.23
2023-03-29T04:09:23.771Z,96.23
2023-03-29T04:10:23.736Z,96.23
2023-03-29T04:11:23.729Z,96.33
2023-03-29T04:12:23.814Z,96.33
2023-03-29T04:13:23.689Z,96.33
2023-03-29T04:14:23.700Z,96.33
2023-03-29T04:15:23.675Z,96.33
2023-03-29T04:16:23.710Z,96.44
2023-03-29T04:17:23.817Z,96.44
2023-03-29T04:18:23.751Z,96.44
2023-03-29T04:19:23.652Z,96.44
2023-03-29T04:20:23.617Z,96.44
2023-03-29T04:21:23.616Z,96.44
2023-03-29T04:22:23.607Z,96.44
2023-03-29T04:23:23.583Z,96.33
2023-03-29T04:24:23.590Z,96.33
2023-03-29T04:25:23.580Z,96.44
2023-03-29T04:26:23.572Z,96.44
2023-03-29T04:27:23.554Z,96.39
2023-03-29T04:28:23.557Z,96.44
2023-03-29T04:29:23.577Z,96.39
2023-03-29T04:30:23.528Z,96.39
2023-03-29T04:31:23.515Z,96.39
2023-03-29T04:32:23.528Z,96.39
2023-03-29T04:33:23.475Z,96.39
2023-03-29T04:34:23.487Z,96.50
2023-03-29T04:35:23.477Z,96.50
2023-03-29T04:36:23.492Z,96.50
2023-03-29T04:37:23.432Z,96.50
2023-03-29T04:38:23.640Z,96.60
2023-03-29T04:39:23.514Z,96.50
2023-03-29T04:40:23.398Z,96.60
2023-03-29T04:41:23.405Z,96.60
2023-03-29T04:42:23.373Z,96.60
2023-03-29T04:43:23.380Z,96.60
2023-03-29T04:44:23.379Z,96.60
2023-03-29T04:45:23.424Z,96.60
2023-03-29T04:46:23.373Z,96.60
2023-03-29T04:47:23.345Z,96.70
2023-03-29T04:48:23.347Z,96.70
2023-03-29T04:49:25.916Z,96.70
2023-03-29T04:50:23.299Z,96.70
2023-03-29T04:51:23.284Z,96.70
2023-03-29T04:52:24.502Z,96.81
2023-03-29T04:53:23.258Z,96.81
2023-03-29T04:54:23.273Z,96.81
2023-03-29T04:55:23.236Z,96.81
2023-03-29T04:56:23.220Z,96.81
2023-03-29T04:57:23.261Z,96.81
2023-03-29T04:58:26.099Z,96.81
2023-03-29T04:59:23.219Z,96.91
2023-03-29T05:00:23.177Z,96.91
2023-03-29T05:01:23.219Z,96.91
2023-03-29T05:02:23.194Z,96.91
2023-03-29T05:03:23.154Z,96.91
2023-03-29T05:04:23.182Z,96.91
2023-03-29T05:05:23.137Z,97.02
2023-03-29T05:06:23.146Z,97.02
2023-03-29T05:07:23.109Z,97.02
2023-03-29T05:08:23.096Z,96.97
2023-03-29T05:09:23.112Z,97.07
2023-03-29T05:10:23.701Z,97.07
2023-03-29T05:11:23.060Z,96.97
2023-03-29T05:12:23.064Z,97.07
2023-03-29T05:13:23.045Z,97.07
2023-03-29T05:14:23.040Z,97.07
2023-03-29T05:15:23.017Z,96.97
2023-03-29T05:16:23.048Z,96.97
2023-03-29T05:17:23.105Z,96.97
2023-03-29T05:18:22.998Z,97.07
2023-03-29T05:19:23.001Z,97.07
2023-03-29T05:20:23.000Z,97.07
2023-03-29T05:21:22.963Z,97.07
2023-03-29T05:22:22.936Z,97.17
2023-03-29T05:23:22.925Z,97.28
2023-03-29T05:24:22.922Z,97.28
2023-03-29T05:25:22.917Z,97.38
2023-03-29T05:26:22.908Z,97.38
2023-03-29T05:27:22.996Z,97.38
2023-03-29T05:28:22.876Z,97.38
2023-03-29T05:29:22.887Z,97.38
2023-03-29T05:30:22.860Z,97.49
2023-03-29T05:31:22.855Z,97.44
2023-03-29T05:32:22.960Z,97.44
2023-03-29T05:33:22.818Z,97.55
2023-03-29T05:34:22.845Z,97.55
2023-03-29T05:35:22.786Z,97.55
2023-03-29T05:36:22.778Z,97.65
2023-03-29T05:37:22.779Z,97.75
2023-03-29T05:38:22.767Z,97.75
2023-03-29T05:39:22.774Z,97.86
2023-03-29T05:40:22.757Z,97.86
2023-03-29T05:41:22.758Z,97.86
2023-03-29T05:42:22.728Z,97.86
2023-03-29T05:43:22.713Z,97.96
2023-03-29T05:44:22.708Z,97.96
2023-03-29T05:45:22.768Z,97.91
2023-03-29T05:46:22.937Z,97.91
2023-03-29T05:47:22.702Z,97.91
2023-03-29T05:48:22.650Z,97.71
2023-03-29T05:49:22.664Z,97.50
2023-03-29T05:50:22.652Z,97.50
2023-03-29T05:51:23.146Z,97.50
2023-03-29T05:52:22.612Z,97.50
2023-03-29T05:53:22.624Z,97.60
2023-03-29T05:54:22.619Z,97.29
2023-03-29T05:55:22.573Z,97.14
2023-03-29T05:56:22.643Z,97.25
2023-03-29T05:57:22.565Z,97.35
2023-03-29T05:58:22.566Z,97.35
2023-03-29T05:59:22.553Z,97.45
2023-03-29T06:00:22.516Z,97.45
2023-03-29T06:01:22.512Z,97.45
2023-03-29T06:02:22.545Z,97.45
2023-03-29T06:03:22.578Z,97.56
2023-03-29T06:04:22.597Z,97.56
2023-03-29T06:05:22.463Z,97.52
2023-03-29T06:06:22.452Z,97.52
2023-03-29T06:07:22.442Z,97.52
2023-03-29T06:08:22.429Z,97.62
2023-03-29T06:09:22.463Z,97.52
2023-03-29T06:10:22.413Z,97.52
2023-03-29T06:11:22.414Z,97.41
2023-03-29T06:12:22.417Z,97.41
2023-03-29T06:13:22.379Z,97.31
2023-03-29T06:14:22.388Z,97.20
2023-03-29T06:15:22.360Z,97.20
2023-03-29T06:16:22.411Z,97.10
2023-03-29T06:17:22.359Z,97.06
2023-03-29T06:18:22.321Z,96.85
2023-03-29T06:19:22.362Z,96.85
2023-03-29T06:20:22.308Z,96.85
2023-03-29T06:21:22.295Z,96.85
2023-03-29T06:22:22.278Z,96.85
2023-03-29T06:23:22.297Z,96.75
2023-03-29T06:24:22.263Z,96.75
2023-03-29T06:25:22.236Z,96.64
2023-03-29T06:26:22.224Z,96.64
2023-03-29T06:27:22.226Z,96.54
2023-03-29T06:28:22.250Z,96.44
2023-03-29T06:29:22.216Z,96.44
2023-03-29T06:30:22.182Z,96.33
2023-03-29T06:31:22.226Z,96.33
2023-03-29T06:32:22.194Z,96.23
2023-03-29T06:33:22.174Z,96.08
2023-03-29T06:34:22.166Z,96.08
2023-03-29T06:35:22.181Z,95.98
2023-03-29T06:36:22.121Z,95.98
2023-03-29T06:37:22.119Z,95.98
2023-03-29T06:38:22.133Z,95.87
2023-03-29T06:39:22.108Z,95.67
2023-03-29T06:40:22.091Z,95.46
2023-03-29T06:41:22.100Z,95.46
2023-03-29T06:42:22.065Z,95.56
2023-03-29T06:43:22.064Z,95.42
2023-03-29T06:44:22.040Z,95.31
2023-03-29T06:45:24.701Z,95.31
2023-03-29T06:46:22.031Z,95.42
2023-03-29T06:47:22.019Z,95.31
2023-03-29T06:48:21.984Z,95.31
2023-03-29T06:49:22.009Z,95.21
2023-03-29T06:50:21.985Z,95.27
2023-03-29T06:51:23.330Z,94.96
2023-03-29T06:52:21.942Z,94.85
2023-03-29T06:53:21.967Z,94.34
2023-03-29T06:54:21.935Z,94.34
2023-03-29T06:55:21.942Z,94.34
2023-03-29T06:56:21.890Z,94.13
2023-03-29T06:57:21.966Z,93.88
2023-03-29T06:58:21.892Z,93.98
2023-03-29T06:59:21.890Z,94.19
2023-03-29T07:00:21.886Z,94.40
2023-03-29T07:01:21.904Z,94.29
2023-03-29T07:02:21.891Z,94.19
2023-03-29T07:03:21.825Z,93.98
2023-03-29T07:04:21.821Z,93.68
2023-03-29T07:05:21.828Z,93.12
2023-03-29T07:06:21.791Z,93.22
2023-03-29T07:07:21.778Z,93.32
2023-03-29T07:08:21.793Z,93.32
2023-03-29T07:09:22.001Z,93.28
2023-03-29T07:10:21.758Z,93.18
2023-03-29T07:11:21.763Z,93.07
2023-03-29T07:12:21.726Z,93.18
2023-03-29T07:13:21.707Z,93.13
2023-03-29T07:14:21.705Z,93.24
2023-03-29T07:15:21.705Z,93.13
2023-03-29T07:16:21.749Z,92.61
2023-03-29T07:17:21.735Z,92.41
2023-03-29T07:18:21.677Z,92.10
2023-03-29T07:19:21.638Z,91.85
2023-03-29T07:20:21.653Z,91.75
2023-03-29T07:21:21.617Z,92.16
2023-03-29T07:22:21.612Z,92.27
2023-03-29T07:23:21.850Z,91.96
2023-03-29T07:24:21.607Z,90.41
2023-03-29T07:25:21.596Z,90.41
2023-03-29T07:26:28.815Z,90.47
2023-03-29T07:27:21.557Z,90.67
2023-03-29T07:28:21.549Z,90.37
2023-03-29T07:29:21.533Z,90.57
2023-03-29T07:30:21.575Z,90.67
2023-03-29T07:31:21.511Z,90.47
2023-03-29T07:32:21.539Z,90.37
2023-03-29T07:33:21.619Z,90.12
2023-03-29T07:34:21.494Z,90.94
2023-03-29T07:35:21.477Z,90.84
2023-03-29T07:36:21.476Z,90.43
2023-03-29T07:37:21.452Z,89.91
2023-03-29T07:38:21.442Z,89.71
2023-03-29T07:39:21.431Z,89.71
2023-03-29T07:40:21.421Z,89.61
2023-03-29T07:41:21.509Z,89.61
2023-03-29T07:42:22.513Z,89.40
2023-03-29T07:43:21.419Z,89.29
2023-03-29T07:44:21.361Z,89.50
2023-03-29T07:45:26.637Z,89.77
2023-03-29T07:46:21.372Z,90.28
2023-03-29T07:47:21.327Z,88.26
2023-03-29T07:48:21.318Z,89.50
2023-03-29T07:49:22.255Z,90.01
2023-03-29T07:50:21.318Z,89.71
2023-03-29T07:51:21.281Z,88.78
2023-03-29T07:52:21.316Z,88.99
2023-03-29T07:53:21.274Z,89.36
2023-03-29T07:54:21.244Z,89.46
2023-03-29T07:55:21.263Z,89.46
2023-03-29T07:56:21.218Z,89.46
2023-03-29T07:57:21.277Z,88.33
2023-03-29T07:58:21.206Z,88.08
2023-03-29T07:59:21.198Z,88.49
2023-03-29T08:00:21.265Z,88.49
2023-03-29T08:01:21.243Z,87.05
2023-03-29T08:02:21.163Z,88.49
2023-03-29T08:03:21.234Z,88.29
2023-03-29T08:04:21.193Z,88.80
2023-03-29T08:05:33.593Z,87.87
2023-03-29T08:06:21.132Z,87.05
2023-03-29T08:07:21.197Z,86.85
2023-03-29T08:08:21.094Z,87.05
2023-03-29T08:09:21.077Z,87.57
2023-03-29T08:10:21.081Z,87.84
2023-03-29T08:11:21.066Z,87.84
2023-03-29T08:12:23.208Z,87.52
2023-03-29T08:13:21.070Z,87.84
2023-03-29T08:14:21.074Z,87.42
2023-03-29T08:15:21.058Z,87.38
2023-03-29T08:16:21.094Z,86.87
2023-03-29T08:17:20.993Z,86.56
2023-03-29T08:18:20.984Z,86.56
2023-03-29T08:19:20.985Z,86.46
2023-03-29T08:20:21.049Z,86.46
2023-03-29T08:21:20.949Z,86.46
2023-03-29T08:22:20.944Z,85.74
2023-03-29T08:23:20.955Z,85.74
2023-03-29T08:24:21.179Z,86.42
2023-03-29T08:25:20.951Z,85.53
2023-03-29T08:26:20.932Z,85.94
2023-03-29T08:27:20.889Z,85.43
2023-03-29T08:28:20.878Z,85.84
2023-03-29T08:29:20.875Z,86.35
2023-03-29T08:30:20.954Z,86.52
2023-03-29T08:31:20.881Z,86.83
2023-03-29T08:32:20.848Z,86.83
2023-03-29T08:33:20.825Z,86.72
2023-03-29T08:34:20.818Z,86.83
2023-03-29T08:35:20.819Z,86.00
2023-03-29T08:36:20.800Z,87.34
2023-03-29T08:37:20.783Z,86.87
2023-03-29T08:38:20.767Z,85.63
2023-03-29T08:39:20.763Z,85.63
2023-03-29T08:40:20.788Z,86.05
2023-03-29T08:41:20.738Z,86.35
2023-03-29T08:42:20.728Z,86.77
2023-03-29T08:43:20.748Z,86.77
2023-03-29T08:44:20.721Z,87.18
2023-03-29T08:45:20.710Z,86.72
2023-03-29T08:46:20.743Z,86.62
2023-03-29T08:47:20.667Z,85.70
2023-03-29T08:48:20.649Z,85.18
2023-03-29T08:49:20.657Z,85.39
2023-03-29T08:50:20.666Z,86.42
2023-03-29T08:51:20.629Z,86.93
2023-03-29T08:52:20.604Z,86.72
2023-03-29T08:53:20.614Z,87.24
2023-03-29T08:54:20.616Z,86.99
2023-03-29T08:55:20.606Z,86.58
2023-03-29T08:56:20.566Z,85.55
2023-03-29T08:57:20.619Z,85.76
2023-03-29T08:58:20.570Z,86.17
2023-03-29T08:59:20.577Z,85.35
2023-03-29T09:00:20.546Z,85.76
2023-03-29T09:01:20.544Z,85.76
2023-03-29T09:02:20.533Z,85.62
2023-03-29T09:03:20.641Z,85.11
2023-03-29T09:04:20.492Z,85.82
2023-03-29T09:05:20.504Z,85.21
2023-03-29T09:06:20.488Z,85.21
2023-03-29T09:07:20.438Z,85.41
2023-03-29T09:08:20.427Z,85.21
2023-03-29T09:09:20.425Z,85.72
2023-03-29T09:10:20.434Z,86.03
2023-03-29T09:11:20.429Z,85.82
2023-03-29T09:12:20.387Z,85.11
2023-03-29T09:13:20.435Z,84.96
2023-03-29T09:14:20.366Z,85.27
2023-03-29T09:15:20.374Z,85.44
2023-03-29T09:16:20.357Z,85.13
2023-03-29T09:17:20.323Z,84.82
2023-03-29T09:18:20.311Z,84.31
2023-03-29T09:19:20.303Z,83.59
2023-03-29T09:20:20.315Z,83.90
2023-03-29T09:21:20.296Z,84.10
2023-03-29T09:22:20.280Z,82.77
2023-03-29T09:23:20.302Z,83.07
2023-03-29T09:24:20.255Z,83.69
2023-03-29T09:25:20.256Z,83.63
2023-03-29T09:26:20.228Z,84.10
2023-03-29T09:27:20.206Z,84.41
2023-03-29T09:28:20.215Z,84.61
2023-03-29T09:29:20.187Z,83.07
2023-03-29T09:30:20.205Z,82.87
2023-03-29T09:31:20.252Z,83.07
2023-03-29T09:32:20.160Z,83.25
2023-03-29T09:33:20.156Z,83.14
2023-03-29T09:34:20.139Z,83.14
2023-03-29T09:35:20.164Z,83.10
2023-03-29T09:36:20.113Z,83.31
2023-03-29T09:37:20.114Z,83.41
2023-03-29T09:38:20.104Z,83.47
2023-03-29T09:39:20.087Z,83.06
2023-03-29T09:40:20.094Z,83.58
2023-03-29T09:41:20.057Z,83.47
2023-03-29T09:42:20.071Z,83.17
2023-03-29T09:43:20.052Z,82.76
2023-03-29T09:44:30.228Z,82.45
2023-03-29T09:45:20.037Z,82.28
2023-03-29T09:46:20.035Z,82.79
2023-03-29T09:47:20.000Z,83.82
2023-03-29T09:48:19.999Z,83.10
2023-03-29T09:49:19.958Z,83.41
2023-03-29T09:50:30.879Z,83.82
2023-03-29T09:51:19.953Z,83.47
2023-03-29T09:52:19.954Z,83.37
2023-03-29T09:53:19.929Z,83.58
2023-03-29T09:54:19.922Z,83.58
2023-03-29T09:55:19.937Z,83.68
2023-03-29T09:56:19.902Z,83.23
2023-03-29T09:57:19.921Z,82.24
2023-03-29T09:58:19.868Z,83.06
2023-03-29T09:59:19.862Z,83.37
2023-03-29T10:00:19.864Z,83.37
2023-03-29T10:01:19.897Z,82.96
2023-03-29T10:02:19.843Z,83.17
2023-03-29T10:03:19.815Z,83.06
2023-03-29T10:04:19.808Z,82.55
2023-03-29T10:05:19.870Z,83.44
2023-03-29T10:06:19.788Z,83.95
2023-03-29T10:07:19.772Z,83.13
2023-03-29T10:08:20.057Z,83.84
2023-03-29T10:09:19.800Z,83.44
2023-03-29T10:10:19.814Z,82.82
2023-03-29T10:11:19.719Z,82.55
2023-03-29T10:12:19.712Z,83.98
2023-03-29T10:13:19.699Z,83.78
2023-03-29T10:14:19.689Z,83.98
2023-03-29T10:15:28.721Z,83.98
2023-03-29T10:16:19.704Z,84.09
2023-03-29T10:17:19.681Z,84.29
2023-03-29T10:18:19.656Z,84.91
2023-03-29T10:19:19.662Z,84.70
2023-03-29T10:20:19.631Z,84.97
2023-03-29T10:21:19.625Z,84.66
2023-03-29T10:22:19.605Z,84.46
2023-03-29T10:23:19.596Z,82.62
2023-03-29T10:24:19.578Z,83.13
2023-03-29T10:25:19.582Z,83.64
2023-03-29T10:26:19.565Z,83.84
2023-03-29T10:27:19.540Z,84.42
2023-03-29T10:28:19.538Z,83.81
2023-03-29T10:29:19.580Z,83.91
2023-03-29T10:30:19.540Z,83.60
2023-03-29T10:31:19.515Z,83.81
2023-03-29T10:32:19.509Z,84.22
2023-03-29T10:33:19.474Z,84.31
2023-03-29T10:34:19.482Z,84.38
2023-03-29T10:35:19.468Z,83.15
2023-03-29T10:36:19.485Z,82.68
2023-03-29T10:37:19.518Z,83.39
2023-03-29T10:38:19.420Z,83.39
2023-03-29T10:39:19.405Z,83.50
2023-03-29T10:40:19.413Z,84.11
2023-03-29T10:41:19.383Z,82.98
2023-03-29T10:42:19.371Z,83.84
2023-03-29T10:43:19.365Z,84.46
2023-03-29T10:44:19.373Z,84.66
2023-03-29T10:45:19.357Z,84.77
2023-03-29T10:46:19.365Z,84.66
2023-03-29T10:47:19.362Z,84.05
2023-03-29T10:48:19.318Z,83.95
2023-03-29T10:49:19.286Z,84.36
2023-03-29T10:50:19.310Z,84.77
2023-03-29T10:51:19.329Z,84.87
2023-03-29T10:52:19.276Z,85.48
2023-03-29T10:53:19.256Z,85.48
2023-03-29T10:54:19.246Z,84.97
2023-03-29T10:55:19.251Z,85.69
2023-03-29T10:56:19.221Z,85.48
2023-03-29T10:57:20.371Z,85.69
2023-03-29T10:58:19.195Z,84.87
2023-03-29T10:59:19.184Z,85.38
2023-03-29T11:00:19.199Z,85.34
2023-03-29T11:01:19.212Z,85.64
2023-03-29T11:02:19.169Z,85.96
2023-03-29T11:03:21.491Z,84.69
2023-03-29T11:04:19.190Z,83.97
2023-03-29T11:05:19.140Z,84.17
2023-03-29T11:06:19.125Z,84.48
2023-03-29T11:07:19.110Z,84.24
2023-03-29T11:08:19.086Z,84.03
2023-03-29T11:09:19.073Z,84.03
2023-03-29T11:10:19.109Z,84.03
2023-03-29T11:11:19.060Z,83.11
2023-03-29T11:12:19.059Z,83.52
2023-03-29T11:13:19.056Z,83.42
2023-03-29T11:14:19.024Z,83.22
2023-03-29T11:15:19.037Z,83.42
2023-03-29T11:16:19.044Z,83.52
2023-03-29T11:17:18.979Z,83.73
2023-03-29T11:18:18.967Z,83.73
2023-03-29T11:19:18.955Z,83.25
2023-03-29T11:20:18.969Z,83.76
2023-03-29T11:21:18.956Z,85.20
2023-03-29T11:22:18.936Z,84.52
2023-03-29T11:23:18.915Z,84.38
2023-03-29T11:24:18.904Z,84.42
2023-03-29T11:25:18.896Z,83.81
2023-03-29T11:26:18.898Z,84.01
2023-03-29T11:27:18.880Z,83.91
2023-03-29T11:28:18.860Z,84.52
2023-03-29T11:29:18.846Z,84.93
2023-03-29T11:30:18.833Z,85.24
2023-03-29T11:31:18.851Z,85.34
2023-03-29T11:32:18.857Z,84.38
2023-03-29T11:33:18.815Z,84.58
2023-03-29T11:34:18.799Z,83.25
2023-03-29T11:35:18.797Z,83.76
2023-03-29T11:36:18.821Z,83.36
2023-03-29T11:37:18.779Z,84.31
2023-03-29T11:38:18.765Z,83.50
2023-03-29T11:39:18.747Z,83.81
2023-03-29T11:40:18.770Z,85.24
2023-03-29T11:41:18.750Z,84.63
2023-03-29T11:42:18.722Z,85.03
2023-03-29T11:43:18.732Z,84.11
2023-03-29T11:44:18.690Z,84.93
2023-03-29T11:45:18.678Z,84.63
2023-03-29T11:46:18.691Z,85.14
2023-03-29T11:47:18.632Z,84.99
2023-03-29T11:48:18.632Z,84.99
2023-03-29T11:49:18.630Z,85.10
2023-03-29T11:50:18.618Z,84.48
2023-03-29T11:51:18.653Z,84.58
2023-03-29T11:52:18.603Z,84.58
2023-03-29T11:53:18.580Z,84.79
2023-03-29T11:54:18.572Z,84.95
2023-03-29T11:55:18.552Z,84.65
2023-03-29T11:56:18.571Z,83.22
2023-03-29T11:57:18.593Z,84.24
2023-03-29T11:58:18.535Z,84.85
2023-03-29T11:59:18.512Z,84.34
2023-03-29T12:00:18.511Z,84.14
2023-03-29T12:01:18.533Z,83.73
2023-03-29T12:02:18.468Z,84.24
2023-03-29T12:03:18.569Z,84.50
2023-03-29T12:04:18.500Z,84.57
2023-03-29T12:05:18.552Z,83.24
2023-03-29T12:06:18.448Z,83.30
2023-03-29T12:07:18.427Z,83.30
2023-03-29T12:08:18.434Z,83.06
2023-03-29T12:09:18.438Z,82.75
2023-03-29T12:10:18.386Z,81.90
2023-03-29T12:11:18.430Z,81.94
2023-03-29T12:12:18.368Z,82.04
2023-03-29T12:13:18.347Z,82.51
2023-03-29T12:14:18.382Z,81.90
2023-03-29T12:15:18.331Z,82.00
2023-03-29T12:16:18.385Z,82.61
2023-03-29T12:17:18.352Z,81.59
2023-03-29T12:18:18.306Z,82.71
2023-03-29T12:19:18.311Z,82.57
2023-03-29T12:20:18.284Z,82.47
2023-03-29T12:21:18.317Z,81.56
2023-03-29T12:22:18.254Z,80.02
2023-03-29T12:23:18.253Z,81.15
2023-03-29T12:24:18.239Z,80.64
2023-03-29T12:25:19.674Z,80.54
2023-03-29T12:26:18.230Z,80.84
2023-03-29T12:27:18.191Z,81.45
2023-03-29T12:28:18.200Z,82.10
2023-03-29T12:29:18.201Z,82.10
2023-03-29T12:30:18.173Z,81.59
2023-03-29T12:31:18.204Z,82.24
2023-03-29T12:32:18.135Z,82.45
2023-03-29T12:33:18.187Z,82.35
2023-03-29T12:34:18.127Z,81.77
2023-03-29T12:35:18.134Z,82.22
2023-03-29T12:36:18.162Z,83.24
2023-03-29T12:37:18.099Z,84.06
2023-03-29T12:38:18.095Z,84.06
2023-03-29T12:39:18.062Z,84.47
2023-03-29T12:40:18.058Z,84.67
2023-03-29T12:41:18.067Z,84.57
2023-03-29T12:42:18.036Z,83.34
2023-03-29T12:43:18.018Z,83.54
2023-03-29T12:44:18.038Z,83.75
2023-03-29T12:45:18.058Z,84.26
2023-03-29T12:46:18.125Z,84.22
2023-03-29T12:47:17.982Z,84.42
2023-03-29T12:48:18.018Z,84.49
2023-03-29T12:49:20.945Z,83.37
2023-03-29T12:50:17.944Z,83.37
2023-03-29T12:51:17.961Z,83.47
2023-03-29T12:52:17.947Z,83.47